Aurora, Kentucky
Current Conditions -  °F | °C
As of 12:15 AM on Saturday 20 Dec 2014 (Local Time) from KCEY Reporting Station
Overcast Overcast  
Wind Chill: 31°   Ceiling: 3800
Heat Index: 36°   Visibility: 10mi
Dew Point: 27°   Wind: 6mph
Humidity: 70%   Direction: 30°NNE
Pressure: 30.24"   Gusts: NA
Location:  36.7761°N, 88.2528°W
Report Text: KCEY 200615Z AUTO 03005KT 10SM BKN038 OVC050 02/M03 A3024 RMK AO1
Loading
Personal Weather Stations






























Interactive Weather Map New forecast layout! Learn more

10-Day Weather Forecast

Advertisements
Track Severe Weather on mobile